This is the latest recevied weather packets stored in our database for station/object OK3MS-5. If no packets are shown the sender has not sent any weather packets the latest 10 day(s).
| Time | Temp. | Humidity | Pressure | Rain* | Wind** | Luminosity | Snow |
|---|---|---|---|---|---|---|---|
| 1777733704 | 23.89° C | 26% | 1017.3 hPa | 0 mm | - | 394 W/m² | - |
| 1777733404 | 23.33° C | 25% | 1017.5 hPa | 0 mm | - | 411 W/m² | - |
| 1777733102 | 23.33° C | 25% | 1017.6 hPa | 0 mm | - | 425 W/m² | - |
| 1777732804 | 23.33° C | 26% | 1017.7 hPa | 0 mm | - | 438 W/m² | - |
| 1777732502 | 23.33° C | 25% | 1017.7 hPa | 0 mm | - | 452 W/m² | - |
| 1777732202 | 23.33° C | 25% | 1017.7 hPa | 0 mm | - | 464 W/m² | - |
| 1777731903 | 23.33° C | 25% | 1017.8 hPa | 0 mm | - | 476 W/m² | - |
| 1777731606 | 24.44° C | 26% | 1017.7 hPa | 0 mm | - | 490 W/m² | - |
| 1777731303 | 23.33° C | 25% | 1018 hPa | 0 mm | - | 503 W/m² | - |
| 1777731002 | 23.89° C | 25% | 1017.8 hPa | 0 mm | - | 515 W/m² | - |
| 1777730705 | 23.89° C | 26% | 1017.8 hPa | 0 mm | - | 528 W/m² | - |
| 1777730404 | 24.44° C | 26% | 1017.9 hPa | 0 mm | - | 77 W/m² | - |
| 1777730106 | 23.89° C | 25% | 1017.8 hPa | 0 mm | - | 554 W/m² | - |
| 1777729808 | 23.33° C | 27% | 1018.1 hPa | 0 mm | - | 566 W/m² | - |
| 1777729507 | 22.78° C | 27% | 1018.1 hPa | 0 mm | - | 574 W/m² | - |
| 1777729202 | 23.33° C | 26% | 1018.2 hPa | 0 mm | - | 585 W/m² | - |
| 1777728906 | 22.78° C | 26% | 1018.4 hPa | 0 mm | - | 599 W/m² | - |
| 1777728603 | 23.33° C | 27% | 1018.4 hPa | 0 mm | - | 609 W/m² | - |
| 1777728305 | 23.89° C | 26% | 1018.4 hPa | 0 mm | - | 623 W/m² | - |
| 1777728003 | 23.33° C | 27% | 1018.6 hPa | 0 mm | - | 630 W/m² | - |
| 1777727703 | 23.33° C | 28% | 1018.8 hPa | 0 mm | - | 636 W/m² | - |
| 1777727404 | 22.22° C | 28% | 1018.9 hPa | 0 mm | - | 649 W/m² | - |
| 1777727106 | 22.22° C | 29% | 1018.8 hPa | 0 mm | - | 656 W/m² | - |
| 1777726804 | 22.78° C | 29% | 1018.8 hPa | 0 mm | - | 662 W/m² | - |
| 1777726503 | 22.78° C | 30% | 1018.9 hPa | 0 mm | - | 672 W/m² | - |
* Rain latest hour (hover to see other rain measurements)
** Current wind speed in m/s (hover to see current wind gust speed)